Andover, New Hampshire
Current Conditions -  °F | °C
As of 5:15 PM on Friday 24 Oct 2014 (Local Time) from KLCI Reporting Station
Overcast Overcast  
Wind Chill: 10°   Ceiling: 3300
Heat Index: 10°   Visibility: 10mi
Dew Point:   Wind: 9mph
Humidity: 66%   Direction: 310°NW
Pressure: 29.67"   Gusts: NA
Location:  43.44°N, 71.82°W
Report Text: KLCI 242115Z AUTO 31008KT 10SM OVC033 10/04 A2967 RMK AO1
Loading
Personal Weather Stations






























Interactive Weather Map
Tropical Storm Tracking
New forecast layout! Learn more

10-Day Weather Forecast

Advertisements
Track Severe Weather on mobile